Maersk Marmara — 9V9266 — position and weather

sailwx.info

Track history (hours):
 
Tides and Currents Weather Stations Pressure Air Temp Water Temp Dewpoint Dewpoint Depression Visibility Wind Speed Wind Dir Waves Ship Positions

Maersk Marmara

Last reported at 2017-Sep-16 22:07 UTC. Time now 2017-Sep-21 01:26 UTC.
Position N 40°27' W 030°54'.

Length 183 m; draft 10.4 m.

Type: Tanker. MMSI: 564100000.

Date/timePositionNaut miles runAvg speedWind from/ knotsBaromVisibWave heightAir tempDewpointWater temp
2017-Sep-16 22:07N 40°27' W 030°54'412.6
2017-Sep-16 21:49N 40°26' W 030°49'612.4
2017-Sep-16 21:22N 40°24' W 030°42'812.3
2017-Sep-16 20:44N 40°22' W 030°32'1812.5
2017-Sep-16 19:18N 40°18' W 030°09'513.1
2017-Sep-16 18:55N 40°17' W 030°03'512.7
2017-Sep-16 18:30N 40°16' W 029°56'713.1
2017-Sep-16 17:58N 40°14' W 029°47'713.0
2017-Sep-16 17:24N 40°12' W 029°38'1213.1
2017-Sep-16 16:31N 40°09' W 029°23'113.5
2017-Sep-16 16:25N 40°09' W 029°22'513.0
2017-Sep-16 16:00N 40°08' W 029°15'612.7
2017-Sep-16 15:30N 40°06' W 029°07'712.5
2017-Sep-16 14:57N 40°04' W 028°58'512.3
2017-Sep-16 14:30N 40°03' W 028°51'612.1
2017-Sep-16 13:59N 40°02' W 028°43'712.3
2017-Sep-16 13:26N 40°00' W 028°34'1812.2
2017-Sep-16 11:56N 39°56' W 028°11'1012.3
2017-Sep-16 11:08N 39°53' W 027°59'212.4
2017-Sep-16 10:59N 39°53' W 027°56'612.7
2017-Sep-16 10:29N 39°51' W 027°48'812.4
2017-Sep-16 09:49N 39°49' W 027°38'412.4
2017-Sep-16 09:30N 39°48' W 027°33'612.5
2017-Sep-16 09:00N 39°47' W 027°25'612.7
2017-Sep-16 08:30N 39°45' W 027°17'1412.5
2017-Sep-16 07:23N 39°43' W 026°59'  
2017-Sep-13 17:32N 36°29' W 010°41'012.4
2017-Sep-13 17:30N 36°29' W 010°40'712.4
2017-Sep-13 16:55N 36°27' W 010°31'2512.4
2017-Sep-13 14:53N 36°21' W 010°01'512.5
2017-Sep-13 14:30N 36°20' W 009°55'612.4
2017-Sep-13 14:00N 36°19' W 009°48'712.5
2017-Sep-13 13:26N 36°17' W 009°39'512.5
2017-Sep-13 13:00N 36°16' W 009°33'812.7
2017-Sep-13 12:23N 36°14' W 009°23'1012.5
2017-Sep-13 11:37N 36°11' W 009°12'212.4
2017-Sep-13 11:25N 36°11' W 009°09'512.4
2017-Sep-13 11:00N 36°09' W 009°03'1012.7
2017-Sep-13 10:11N 36°07' W 008°50'412.8
2017-Sep-13 09:54N 36°06' W 008°46'1412.8
2017-Sep-13 08:47N 36°03' W 008°28'1212.5
2017-Sep-13 07:48N 36°00' W 008°14'412.2
2017-Sep-13 07:29N 35°59' W 008°09'612.5
2017-Sep-13 07:00N 35°59' W 008°02'712.6
2017-Sep-13 06:28N 35°58' W 007°53'2312.8
2017-Sep-13 04:38N 35°59' W 007°24'213.0
2017-Sep-13 04:28N 35°59' W 007°22'613.2
2017-Sep-13 04:01N 35°59' W 007°14'2313.2
2017-Sep-13 02:14N 35°60' W 006°46'413.2
2017-Sep-13 01:57N 36°00' W 006°41'612.8
2017-Sep-13 01:31N 35°59' W 006°34'4512.3
2017-Sep-12 21:49N 35°58' W 005°38'310.8
2017-Sep-12 21:30N 35°59' W 005°34'611.3
2017-Sep-12 21:00N 36°01' W 005°27'4 8.5
2017-Sep-12 20:30N 36°04' W 005°24'1 2.0
2017-Sep-12 19:55N 36°05' W 005°24'0 0.2
2017-Sep-12 19:13N 36°05' W 005°24'0 0.0
2017-Sep-12 18:49N 36°05' W 005°24'0 0.2
2017-Sep-12 18:22N 36°05' W 005°24'0 0.1
2017-Sep-12 17:58N 36°05' W 005°24'0 0.0
2017-Sep-12 17:28N 36°05' W 005°24'0 0.0
2017-Sep-12 16:58N 36°05' W 005°24'0 0.0
2017-Sep-12 16:22N 36°05' W 005°24'0 0.0
2017-Sep-12 15:55N 36°05' W 005°24'0 0.1
2017-Sep-12 15:28N 36°05' W 005°24'0 0.0
2017-Sep-12 14:58N 36°05' W 005°24'0 0.0
2017-Sep-12 14:28N 36°05' W 005°24'0 0.1
2017-Sep-12 13:58N 36°05' W 005°24'0 0.1
2017-Sep-12 13:28N 36°05' W 005°24'0 0.0
2017-Sep-12 12:58N 36°05' W 005°24'0 0.4
2017-Sep-12 12:28N 36°05' W 005°24'1 2.7
2017-Sep-12 12:00N 36°05' W 005°23'2 4.4
2017-Sep-12 11:30N 36°04' W 005°20'4 8.1
2017-Sep-12 11:00N 36°03' W 005°15'5 9.3
2017-Sep-12 10:30N 36°04' W 005°10'17710.2
2017-Sep-11 17:06N 36°42' W 001°35'110.3
2017-Sep-11 17:00N 36°43' W 001°34'510.8
2017-Sep-11 16:30N 36°46' W 001°28'1710.7
2017-Sep-11 14:57N 36°54' W 001°10'1110.9
2017-Sep-11 13:56N 36°59' W 000°58'712.5
2017-Sep-11 13:21N 37°03' W 000°50'412.6
2017-Sep-11 13:00N 37°05' W 000°45'812.8
2017-Sep-11 12:22N 37°10' W 000°37'512.8
2017-Sep-11 12:00N 37°12' W 000°32'713.1
2017-Sep-11 11:30N 37°18' W 000°27'913.0
2017-Sep-11 10:51N 37°24' W 000°21'513.1
2017-Sep-11 10:30N 37°28' W 000°17'713.2
2017-Sep-11 09:58N 37°34' W 000°12'613.2
2017-Sep-11 09:30N 37°39' W 000°07'611.5
2017-Sep-11 09:00N 37°43' W 000°03'511.1
2017-Sep-11 08:30N 37°48' E 000°01'611.3
2017-Sep-11 08:00N 37°52' E 000°06'1212.0
2017-Sep-11 06:57N 38°02' E 000°15'713.0
2017-Sep-11 06:25N 38°08' E 000°20'2610.1
2017-Sep-11 03:52N 38°29' E 000°39'510.9
2017-Sep-11 03:26N 38°32' E 000°43'510.8
2017-Sep-11 02:58N 38°36' E 000°47'611.1
2017-Sep-11 02:25N 38°42' E 000°50'510.9
2017-Sep-11 01:55N 38°47' E 000°52'410.7
2017-Sep-11 01:30N 38°52' E 000°54'610.6
2017-Sep-11 00:59N 38°57' E 000°55'2610.1
2017-Sep-10 22:22N 39°21' E 001°09'1810.5
2017-Sep-10 20:41N 39°37' E 001°18'310.6
2017-Sep-10 20:21N 39°41' E 001°19'410.6
2017-Sep-10 20:00N 39°44' E 001°21'510.6
2017-Sep-10 19:30N 39°49' E 001°24'510.7
2017-Sep-10 19:00N 39°54' E 001°27'510.6
2017-Sep-10 18:30N 39°59' E 001°29'510.6
2017-Sep-10 18:00N 40°04' E 001°32'510.7
2017-Sep-10 17:30N 40°09' E 001°34'510.7
2017-Sep-10 17:00N 40°14' E 001°37'510.7
2017-Sep-10 16:30N 40°19' E 001°39'510.6
2017-Sep-10 16:00N 40°24' E 001°42'510.5
2017-Sep-10 15:30N 40°28' E 001°45'510.3
2017-Sep-10 15:00N 40°33' E 001°47'1010.5
2017-Sep-10 14:00N 40°43' E 001°53'510.6
2017-Sep-10 13:30N 40°48' E 001°55'510.8
2017-Sep-10 13:00N 40°53' E 001°58'510.9
2017-Sep-10 12:30N 40°58' E 002°01'611.2
2017-Sep-10 12:00N 41°03' E 002°03'611.2
2017-Sep-10 11:30N 41°08' E 002°06'510.1
2017-Sep-10 11:00N 41°13' E 002°09'5 9.2
2017-Sep-10 10:27N 41°18' E 002°10'0 0.0
2017-Sep-09 15:00N 41°18' E 002°11'7 6.5
2017-Sep-09 13:55N 41°14' E 002°17'4 9.5
2017-Sep-09 13:28N 41°12' E 002°23'4 9.3
2017-Sep-09 13:00N 41°10' E 002°28'5 9.4
2017-Sep-09 12:30N 41°08' E 002°34'5 9.2
2017-Sep-09 11:58N 41°06' E 002°40'4 8.8
2017-Sep-09 11:30N 41°05' E 002°45'4 8.6
2017-Sep-09 11:00N 41°02' E 002°50'5 9.4
2017-Sep-09 10:29N 40°60' E 002°55'510.6
2017-Sep-09 10:00N 40°57' E 003°01'611.3
2017-Sep-09 09:30N 40°55' E 003°08'611.7
2017-Sep-09 09:00N 40°52' E 003°14'611.6
2017-Sep-09 08:30N 40°49' E 003°21'611.4
2017-Sep-09 07:59N 40°46' E 003°27'2311.4
2017-Sep-09 05:56N 40°32' E 003°53'24711.1
2017-Sep-08 07:41N 38°29' E 008°30'22710.7
2017-Sep-07 10:35N 36°51' E 012°49'511.6
2017-Sep-07 10:09N 36°50' E 012°55'211.7
2017-Sep-07 10:00N 36°50' E 012°57'611.6
2017-Sep-07 09:30N 36°49' E 013°04'811.5
2017-Sep-07 08:51N 36°46' E 013°12'411.4
2017-Sep-07 08:30N 36°45' E 013°17'611.2
2017-Sep-07 07:59N 36°43' E 013°24'511.1
2017-Sep-07 07:30N 36°42' E 013°31'612.2
2017-Sep-07 07:00N 36°40' E 013°38'610.9
2017-Sep-07 06:27N 36°39' E 013°45'610.8
2017-Sep-07 05:57N 36°38' E 013°52'510.9
2017-Sep-07 05:30N 36°36' E 013°58'510.7
2017-Sep-07 05:00N 36°35' E 014°04'610.7
2017-Sep-07 04:24N 36°33' E 014°12'410.7
2017-Sep-07 04:00N 36°32' E 014°17'510.7
2017-Sep-07 03:30N 36°31' E 014°23'510.8
2017-Sep-07 03:01N 36°29' E 014°30'510.7
2017-Sep-07 02:30N 36°28' E 014°36'510.5
2017-Sep-07 02:00N 36°28' E 014°43'510.3
2017-Sep-07 01:28N 36°27' E 014°50'5 9.8
2017-Sep-07 00:59N 36°26' E 014°55'5 9.6
2017-Sep-07 00:30N 36°23' E 015°00'5 9.9
2017-Sep-07 00:00N 36°20' E 015°05'610.7
2017-Sep-06 23:29N 36°19' E 015°12'611.0
2017-Sep-06 22:58N 36°19' E 015°19'  
Track history (hours):
 
Tides and Currents Weather Stations Pressure Air Temp Water Temp Dewpoint Dewpoint Depression Visibility Wind Speed Wind Dir Waves Ship Positions

Maersk Marmara

Last reported at 2017-Sep-16 22:07 UTC. Time now 2017-Sep-21 01:26 UTC.
Position N 40°27' W 030°54'.

Length 183 m; draft 10.4 m.

Type: Tanker. MMSI: 564100000.

Date/timePositionNaut miles runAvg speedWind from/ knotsBaromVisibWave heightAir tempDewpointWater temp
2017-Sep-16 22:07N 40°27' W 030°54'412.6
2017-Sep-16 21:49N 40°26' W 030°49'612.4
2017-Sep-16 21:22N 40°24' W 030°42'812.3
2017-Sep-16 20:44N 40°22' W 030°32'1812.5
2017-Sep-16 19:18N 40°18' W 030°09'513.1
2017-Sep-16 18:55N 40°17' W 030°03'512.7
2017-Sep-16 18:30N 40°16' W 029°56'713.1
2017-Sep-16 17:58N 40°14' W 029°47'713.0
2017-Sep-16 17:24N 40°12' W 029°38'1213.1
2017-Sep-16 16:31N 40°09' W 029°23'113.5
2017-Sep-16 16:25N 40°09' W 029°22'513.0
2017-Sep-16 16:00N 40°08' W 029°15'612.7
2017-Sep-16 15:30N 40°06' W 029°07'712.5
2017-Sep-16 14:57N 40°04' W 028°58'512.3
2017-Sep-16 14:30N 40°03' W 028°51'612.1
2017-Sep-16 13:59N 40°02' W 028°43'712.3
2017-Sep-16 13:26N 40°00' W 028°34'1812.2
2017-Sep-16 11:56N 39°56' W 028°11'1012.3
2017-Sep-16 11:08N 39°53' W 027°59'212.4
2017-Sep-16 10:59N 39°53' W 027°56'612.7
2017-Sep-16 10:29N 39°51' W 027°48'812.4
2017-Sep-16 09:49N 39°49' W 027°38'412.4
2017-Sep-16 09:30N 39°48' W 027°33'612.5
2017-Sep-16 09:00N 39°47' W 027°25'612.7
2017-Sep-16 08:30N 39°45' W 027°17'1412.5
2017-Sep-16 07:23N 39°43' W 026°59'  
2017-Sep-13 17:32N 36°29' W 010°41'012.4
2017-Sep-13 17:30N 36°29' W 010°40'712.4
2017-Sep-13 16:55N 36°27' W 010°31'2512.4
2017-Sep-13 14:53N 36°21' W 010°01'512.5
2017-Sep-13 14:30N 36°20' W 009°55'612.4
2017-Sep-13 14:00N 36°19' W 009°48'712.5
2017-Sep-13 13:26N 36°17' W 009°39'512.5
2017-Sep-13 13:00N 36°16' W 009°33'812.7
2017-Sep-13 12:23N 36°14' W 009°23'1012.5
2017-Sep-13 11:37N 36°11' W 009°12'212.4
2017-Sep-13 11:25N 36°11' W 009°09'512.4
2017-Sep-13 11:00N 36°09' W 009°03'1012.7
2017-Sep-13 10:11N 36°07' W 008°50'412.8
2017-Sep-13 09:54N 36°06' W 008°46'1412.8
2017-Sep-13 08:47N 36°03' W 008°28'1212.5
2017-Sep-13 07:48N 36°00' W 008°14'412.2
2017-Sep-13 07:29N 35°59' W 008°09'612.5
2017-Sep-13 07:00N 35°59' W 008°02'712.6
2017-Sep-13 06:28N 35°58' W 007°53'2312.8
2017-Sep-13 04:38N 35°59' W 007°24'213.0
2017-Sep-13 04:28N 35°59' W 007°22'613.2
2017-Sep-13 04:01N 35°59' W 007°14'2313.2
2017-Sep-13 02:14N 35°60' W 006°46'413.2
2017-Sep-13 01:57N 36°00' W 006°41'612.8
2017-Sep-13 01:31N 35°59' W 006°34'4512.3
2017-Sep-12 21:49N 35°58' W 005°38'310.8
2017-Sep-12 21:30N 35°59' W 005°34'611.3
2017-Sep-12 21:00N 36°01' W 005°27'4 8.5
2017-Sep-12 20:30N 36°04' W 005°24'1 2.0
2017-Sep-12 19:55N 36°05' W 005°24'0 0.2
2017-Sep-12 19:13N 36°05' W 005°24'0 0.0
2017-Sep-12 18:49N 36°05' W 005°24'0 0.2
2017-Sep-12 18:22N 36°05' W 005°24'0 0.1
2017-Sep-12 17:58N 36°05' W 005°24'0 0.0
2017-Sep-12 17:28N 36°05' W 005°24'0 0.0
2017-Sep-12 16:58N 36°05' W 005°24'0 0.0
2017-Sep-12 16:22N 36°05' W 005°24'0 0.0
2017-Sep-12 15:55N 36°05' W 005°24'0 0.1
2017-Sep-12 15:28N 36°05' W 005°24'0 0.0
2017-Sep-12 14:58N 36°05' W 005°24'0 0.0
2017-Sep-12 14:28N 36°05' W 005°24'0 0.1
2017-Sep-12 13:58N 36°05' W 005°24'0 0.1
2017-Sep-12 13:28N 36°05' W 005°24'0 0.0
2017-Sep-12 12:58N 36°05' W 005°24'0 0.4
2017-Sep-12 12:28N 36°05' W 005°24'1 2.7
2017-Sep-12 12:00N 36°05' W 005°23'2 4.4
2017-Sep-12 11:30N 36°04' W 005°20'4 8.1
2017-Sep-12 11:00N 36°03' W 005°15'5 9.3
2017-Sep-12 10:30N 36°04' W 005°10'17710.2
2017-Sep-11 17:06N 36°42' W 001°35'110.3
2017-Sep-11 17:00N 36°43' W 001°34'510.8
2017-Sep-11 16:30N 36°46' W 001°28'1710.7
2017-Sep-11 14:57N 36°54' W 001°10'1110.9
2017-Sep-11 13:56N 36°59' W 000°58'712.5
2017-Sep-11 13:21N 37°03' W 000°50'412.6
2017-Sep-11 13:00N 37°05' W 000°45'812.8
2017-Sep-11 12:22N 37°10' W 000°37'512.8
2017-Sep-11 12:00N 37°12' W 000°32'713.1
2017-Sep-11 11:30N 37°18' W 000°27'913.0
2017-Sep-11 10:51N 37°24' W 000°21'513.1
2017-Sep-11 10:30N 37°28' W 000°17'713.2
2017-Sep-11 09:58N 37°34' W 000°12'613.2
2017-Sep-11 09:30N 37°39' W 000°07'611.5
2017-Sep-11 09:00N 37°43' W 000°03'511.1
2017-Sep-11 08:30N 37°48' E 000°01'611.3
2017-Sep-11 08:00N 37°52' E 000°06'1212.0
2017-Sep-11 06:57N 38°02' E 000°15'713.0
2017-Sep-11 06:25N 38°08' E 000°20'2610.1
2017-Sep-11 03:52N 38°29' E 000°39'510.9
2017-Sep-11 03:26N 38°32' E 000°43'510.8
2017-Sep-11 02:58N 38°36' E 000°47'611.1
2017-Sep-11 02:25N 38°42' E 000°50'510.9
2017-Sep-11 01:55N 38°47' E 000°52'410.7
2017-Sep-11 01:30N 38°52' E 000°54'610.6
2017-Sep-11 00:59N 38°57' E 000°55'2610.1
2017-Sep-10 22:22N 39°21' E 001°09'1810.5
2017-Sep-10 20:41N 39°37' E 001°18'310.6
2017-Sep-10 20:21N 39°41' E 001°19'410.6
2017-Sep-10 20:00N 39°44' E 001°21'510.6
2017-Sep-10 19:30N 39°49' E 001°24'510.7
2017-Sep-10 19:00N 39°54' E 001°27'510.6
2017-Sep-10 18:30N 39°59' E 001°29'510.6
2017-Sep-10 18:00N 40°04' E 001°32'510.7
2017-Sep-10 17:30N 40°09' E 001°34'510.7
2017-Sep-10 17:00N 40°14' E 001°37'510.7
2017-Sep-10 16:30N 40°19' E 001°39'510.6
2017-Sep-10 16:00N 40°24' E 001°42'510.5
2017-Sep-10 15:30N 40°28' E 001°45'510.3
2017-Sep-10 15:00N 40°33' E 001°47'1010.5
2017-Sep-10 14:00N 40°43' E 001°53'510.6
2017-Sep-10 13:30N 40°48' E 001°55'510.8
2017-Sep-10 13:00N 40°53' E 001°58'510.9
2017-Sep-10 12:30N 40°58' E 002°01'611.2
2017-Sep-10 12:00N 41°03' E 002°03'611.2
2017-Sep-10 11:30N 41°08' E 002°06'510.1
2017-Sep-10 11:00N 41°13' E 002°09'5 9.2
2017-Sep-10 10:27N 41°18' E 002°10'0 0.0
2017-Sep-09 15:00N 41°18' E 002°11'7 6.5
2017-Sep-09 13:55N 41°14' E 002°17'4 9.5
2017-Sep-09 13:28N 41°12' E 002°23'4 9.3
2017-Sep-09 13:00N 41°10' E 002°28'5 9.4
2017-Sep-09 12:30N 41°08' E 002°34'5 9.2
2017-Sep-09 11:58N 41°06' E 002°40'4 8.8
2017-Sep-09 11:30N 41°05' E 002°45'4 8.6
2017-Sep-09 11:00N 41°02' E 002°50'5 9.4
2017-Sep-09 10:29N 40°60' E 002°55'510.6
2017-Sep-09 10:00N 40°57' E 003°01'611.3
2017-Sep-09 09:30N 40°55' E 003°08'611.7
2017-Sep-09 09:00N 40°52' E 003°14'611.6
2017-Sep-09 08:30N 40°49' E 003°21'611.4
2017-Sep-09 07:59N 40°46' E 003°27'2311.4
2017-Sep-09 05:56N 40°32' E 003°53'24711.1
2017-Sep-08 07:41N 38°29' E 008°30'22710.7
2017-Sep-07 10:35N 36°51' E 012°49'511.6
2017-Sep-07 10:09N 36°50' E 012°55'211.7
2017-Sep-07 10:00N 36°50' E 012°57'611.6
2017-Sep-07 09:30N 36°49' E 013°04'811.5
2017-Sep-07 08:51N 36°46' E 013°12'411.4
2017-Sep-07 08:30N 36°45' E 013°17'611.2
2017-Sep-07 07:59N 36°43' E 013°24'511.1
2017-Sep-07 07:30N 36°42' E 013°31'612.2
2017-Sep-07 07:00N 36°40' E 013°38'610.9
2017-Sep-07 06:27N 36°39' E 013°45'610.8
2017-Sep-07 05:57N 36°38' E 013°52'510.9
2017-Sep-07 05:30N 36°36' E 013°58'510.7
2017-Sep-07 05:00N 36°35' E 014°04'610.7
2017-Sep-07 04:24N 36°33' E 014°12'410.7
2017-Sep-07 04:00N 36°32' E 014°17'510.7
2017-Sep-07 03:30N 36°31' E 014°23'510.8
2017-Sep-07 03:01N 36°29' E 014°30'510.7
2017-Sep-07 02:30N 36°28' E 014°36'510.5
2017-Sep-07 02:00N 36°28' E 014°43'510.3
2017-Sep-07 01:28N 36°27' E 014°50'5 9.8
2017-Sep-07 00:59N 36°26' E 014°55'5 9.6
2017-Sep-07 00:30N 36°23' E 015°00'5 9.9
2017-Sep-07 00:00N 36°20' E 015°05'610.7
2017-Sep-06 23:29N 36°19' E 015°12'611.0
2017-Sep-06 22:58N 36°19' E 015°19'  

Dump ship's entire track history